sensor_id;sensor_type;location;lat;lon;timestamp;pressure;altitude;pressure_sealevel;temperature;humidity
70971;BME280;58632;51.718;19.446;2023-06-14T00:00:38;99656.46;;;14.19;100.00
70971;BME280;58632;51.718;19.446;2023-06-14T00:03:31;99658.20;;;14.25;100.00
70971;BME280;58632;51.718;19.446;2023-06-14T00:05:57;99656.16;;;14.23;100.00
70971;BME280;58632;51.718;19.446;2023-06-14T00:08:25;99655.92;;;14.22;100.00
70971;BME280;58632;51.718;19.446;2023-06-14T00:10:53;99652.84;;;14.24;100.00
70971;BME280;58632;51.718;19.446;2023-06-14T00:13:19;99654.25;;;14.27;100.00
70971;BME280;58632;51.718;19.446;2023-06-14T00:15:45;99651.97;;;14.24;100.00
70971;BME280;58632;51.718;19.446;2023-06-14T00:18:11;99657.73;;;14.22;100.00
70971;BME280;58632;51.718;19.446;2023-06-14T00:20:40;99656.95;;;14.16;100.00
70971;BME280;58632;51.718;19.446;2023-06-14T00:23:08;99655.69;;;14.09;100.00
70971;BME280;58632;51.718;19.446;2023-06-14T00:25:33;99656.20;;;14.02;100.00
70971;BME280;58632;51.718;19.446;2023-06-14T00:27:59;99653.58;;;13.96;100.00
70971;BME280;58632;51.718;19.446;2023-06-14T00:30:25;99653.52;;;13.97;100.00
70971;BME280;58632;51.718;19.446;2023-06-14T00:32:50;99653.61;;;13.94;100.00
70971;BME280;58632;51.718;19.446;2023-06-14T00:35:16;99655.66;;;13.91;100.00
70971;BME280;58632;51.718;19.446;2023-06-14T00:37:42;99652.77;;;13.92;100.00
70971;BME280;58632;51.718;19.446;2023-06-14T00:40:08;99650.11;;;13.93;100.00
70971;BME280;58632;51.718;19.446;2023-06-14T00:42:34;99647.42;;;13.92;100.00
70971;BME280;58632;51.718;19.446;2023-06-14T00:45:02;99646.25;;;13.93;100.00
70971;BME280;58632;51.718;19.446;2023-06-14T00:47:30;99655.56;;;13.91;100.00
70971;BME280;58632;51.718;19.446;2023-06-14T00:49:55;99656.05;;;13.91;100.00
70971;BME280;58632;51.718;19.446;2023-06-14T00:52:22;99654.34;;;13.87;100.00
70971;BME280;58632;51.718;19.446;2023-06-14T00:54:49;99649.27;;;13.78;100.00
70971;BME280;58632;51.718;19.446;2023-06-14T00:57:15;99648.55;;;13.67;100.00
70971;BME280;58632;51.718;19.446;2023-06-14T00:59:46;99649.40;;;13.62;100.00
70971;BME280;58632;51.718;19.446;2023-06-14T01:02:12;99645.05;;;13.61;100.00
70971;BME280;58632;51.718;19.446;2023-06-14T01:04:40;99641.76;;;13.62;100.00
70971;BME280;58632;51.718;19.446;2023-06-14T01:07:28;99646.65;;;13.62;100.00
70971;BME280;58632;51.718;19.446;2023-06-14T01:15:22;99644.48;;;13.65;100.00
70971;BME280;58632;51.718;19.446;2023-06-14T01:17:50;99639.70;;;13.61;100.00
70971;BME280;58632;51.718;19.446;2023-06-14T01:20:21;99643.91;;;13.57;100.00
70971;BME280;58632;51.718;19.446;2023-06-14T01:22:51;99638.91;;;13.50;100.00
70971;BME280;58632;51.718;19.446;2023-06-14T01:25:18;99639.30;;;13.48;100.00
70971;BME280;58632;51.718;19.446;2023-06-14T01:28:03;99639.20;;;13.49;100.00
70971;BME280;58632;51.718;19.446;2023-06-14T01:30:30;99636.98;;;13.51;100.00
70971;BME280;58632;51.718;19.446;2023-06-14T01:32:58;99636.36;;;13.51;100.00
70971;BME280;58632;51.718;19.446;2023-06-14T01:35:24;99638.05;;;13.51;100.00
70971;BME280;58632;51.718;19.446;2023-06-14T01:37:53;99635.20;;;13.50;100.00
70971;BME280;58632;51.718;19.446;2023-06-14T01:40:19;99633.56;;;13.45;100.00
70971;BME280;58632;51.718;19.446;2023-06-14T01:42:47;99637.53;;;13.42;100.00
70971;BME280;58632;51.718;19.446;2023-06-14T01:45:15;99639.71;;;13.41;100.00
70971;BME280;58632;51.718;19.446;2023-06-14T01:47:41;99640.71;;;13.47;100.00
70971;BME280;58632;51.718;19.446;2023-06-14T01:50:07;99640.72;;;13.53;100.00
70971;BME280;58632;51.718;19.446;2023-06-14T01:52:39;99640.33;;;13.55;100.00
70971;BME280;58632;51.718;19.446;2023-06-14T01:55:05;99642.50;;;13.57;100.00
70971;BME280;58632;51.718;19.446;2023-06-14T01:57:31;99646.34;;;13.54;100.00
70971;BME280;58632;51.718;19.446;2023-06-14T01:59:57;99647.98;;;13.57;100.00
70971;BME280;58632;51.718;19.446;2023-06-14T02:02:22;99649.42;;;13.58;100.00
70971;BME280;58632;51.718;19.446;2023-06-14T02:04:48;99649.04;;;13.55;100.00
70971;BME280;58632;51.718;19.446;2023-06-14T02:07:14;99646.81;;;13.52;100.00
70971;BME280;58632;51.718;19.446;2023-06-14T02:09:40;99642.70;;;13.48;100.00
70971;BME280;58632;51.718;19.446;2023-06-14T02:12:06;99641.21;;;13.43;100.00
70971;BME280;58632;51.718;19.446;2023-06-14T02:14:32;99641.87;;;13.40;100.00
70971;BME280;58632;51.718;19.446;2023-06-14T02:16:59;99640.96;;;13.41;100.00
70971;BME280;58632;51.718;19.446;2023-06-14T02:19:27;99647.25;;;13.41;100.00
70971;BME280;58632;51.718;19.446;2023-06-14T02:21:54;99644.02;;;13.43;100.00
70971;BME280;58632;51.718;19.446;2023-06-14T02:24:20;99641.80;;;13.45;100.00
70971;BME280;58632;51.718;19.446;2023-06-14T02:26:45;99646.61;;;13.46;100.00
70971;BME280;58632;51.718;19.446;2023-06-14T02:29:11;99640.83;;;13.41;100.00
70971;BME280;58632;51.718;19.446;2023-06-14T02:31:40;99642.81;;;13.40;100.00
70971;BME280;58632;51.718;19.446;2023-06-14T02:34:05;99645.09;;;13.39;100.00
70971;BME280;58632;51.718;19.446;2023-06-14T02:36:34;99645.80;;;13.40;100.00
70971;BME280;58632;51.718;19.446;2023-06-14T02:39:00;99645.20;;;13.40;100.00
70971;BME280;58632;51.718;19.446;2023-06-14T02:41:26;99647.58;;;13.41;100.00
70971;BME280;58632;51.718;19.446;2023-06-14T02:43:52;99643.70;;;13.38;100.00
70971;BME280;58632;51.718;19.446;2023-06-14T02:46:18;99645.40;;;13.37;100.00
70971;BME280;58632;51.718;19.446;2023-06-14T02:48:44;99646.63;;;13.39;100.00
70971;BME280;58632;51.718;19.446;2023-06-14T02:51:10;99650.02;;;13.43;100.00
70971;BME280;58632;51.718;19.446;2023-06-14T02:53:36;99650.33;;;13.48;100.00
70971;BME280;58632;51.718;19.446;2023-06-14T02:56:04;99649.95;;;13.52;100.00
70971;BME280;58632;51.718;19.446;2023-06-14T02:58:30;99650.92;;;13.50;100.00
70971;BME280;58632;51.718;19.446;2023-06-14T03:00:56;99647.23;;;13.50;100.00
70971;BME280;58632;51.718;19.446;2023-06-14T03:03:22;99647.63;;;13.50;100.00
70971;BME280;58632;51.718;19.446;2023-06-14T03:05:50;99642.19;;;13.47;100.00
70971;BME280;58632;51.718;19.446;2023-06-14T03:08:19;99642.58;;;13.52;100.00
70971;BME280;58632;51.718;19.446;2023-06-14T03:10:46;99638.16;;;13.54;100.00
70971;BME280;58632;51.718;19.446;2023-06-14T03:13:15;99639.77;;;13.58;100.00
70971;BME280;58632;51.718;19.446;2023-06-14T03:15:42;99639.56;;;13.59;100.00
70971;BME280;58632;51.718;19.446;2023-06-14T03:18:08;99639.02;;;13.59;100.00
70971;BME280;58632;51.718;19.446;2023-06-14T03:20:38;99644.82;;;13.61;100.00
70971;BME280;58632;51.718;19.446;2023-06-14T03:23:03;99646.23;;;13.61;100.00
70971;BME280;58632;51.718;19.446;2023-06-14T03:25:31;99649.45;;;13.66;100.00
70971;BME280;58632;51.718;19.446;2023-06-14T03:27:59;99651.52;;;13.74;100.00
70971;BME280;58632;51.718;19.446;2023-06-14T03:30:25;99651.98;;;13.76;100.00
70971;BME280;58632;51.718;19.446;2023-06-14T03:32:51;99650.23;;;13.78;100.00
70971;BME280;58632;51.718;19.446;2023-06-14T03:35:21;99648.35;;;13.79;100.00
70971;BME280;58632;51.718;19.446;2023-06-14T03:37:47;99651.11;;;13.79;100.00
70971;BME280;58632;51.718;19.446;2023-06-14T03:40:15;99652.30;;;13.76;100.00
70971;BME280;58632;51.718;19.446;2023-06-14T03:42:40;99655.11;;;13.76;100.00
70971;BME280;58632;51.718;19.446;2023-06-14T03:45:06;99657.11;;;13.80;100.00
70971;BME280;58632;51.718;19.446;2023-06-14T03:47:32;99657.36;;;13.80;100.00
70971;BME280;58632;51.718;19.446;2023-06-14T03:49:58;99659.09;;;13.85;100.00
70971;BME280;58632;51.718;19.446;2023-06-14T03:52:23;99663.52;;;13.89;100.00
70971;BME280;58632;51.718;19.446;2023-06-14T03:54:50;99659.59;;;13.89;100.00
70971;BME280;58632;51.718;19.446;2023-06-14T03:57:19;99656.17;;;13.88;100.00
70971;BME280;58632;51.718;19.446;2023-06-14T03:59:48;99658.75;;;13.89;100.00
70971;BME280;58632;51.718;19.446;2023-06-14T04:02:13;99653.76;;;13.91;100.00
70971;BME280;58632;51.718;19.446;2023-06-14T04:04:43;99657.58;;;13.95;100.00
70971;BME280;58632;51.718;19.446;2023-06-14T04:07:11;99659.39;;;13.98;100.00
70971;BME280;58632;51.718;19.446;2023-06-14T04:09:37;99664.58;;;14.01;100.00
70971;BME280;58632;51.718;19.446;2023-06-14T04:12:03;99665.09;;;14.00;100.00
70971;BME280;58632;51.718;19.446;2023-06-14T04:14:29;99666.89;;;14.07;100.00
70971;BME280;58632;51.718;19.446;2023-06-14T04:16:56;99672.70;;;14.14;100.00
70971;BME280;58632;51.718;19.446;2023-06-14T04:19:21;99671.63;;;14.30;100.00
70971;BME280;58632;51.718;19.446;2023-06-14T04:21:47;99666.73;;;14.51;100.00
70971;BME280;58632;51.718;19.446;2023-06-14T04:24:13;99666.59;;;14.73;100.00
70971;BME280;58632;51.718;19.446;2023-06-14T04:26:41;99664.09;;;14.89;100.00
70971;BME280;58632;51.718;19.446;2023-06-14T04:29:06;99667.82;;;15.02;100.00
70971;BME280;58632;51.718;19.446;2023-06-14T04:31:32;99670.80;;;15.09;100.00
70971;BME280;58632;51.718;19.446;2023-06-14T04:34:05;99676.24;;;15.12;100.00
70971;BME280;58632;51.718;19.446;2023-06-14T04:36:35;99674.73;;;15.11;100.00
70971;BME280;58632;51.718;19.446;2023-06-14T04:39:03;99677.75;;;15.12;100.00
70971;BME280;58632;51.718;19.446;2023-06-14T04:41:30;99669.31;;;15.15;100.00
70971;BME280;58632;51.718;19.446;2023-06-14T04:43:59;99668.65;;;15.20;100.00
70971;BME280;58632;51.718;19.446;2023-06-14T04:46:28;99667.35;;;15.21;100.00
70971;BME280;58632;51.718;19.446;2023-06-14T04:48:54;99662.44;;;15.17;100.00
70971;BME280;58632;51.718;19.446;2023-06-14T04:51:20;99667.58;;;15.18;100.00
70971;BME280;58632;51.718;19.446;2023-06-14T04:53:57;99669.65;;;15.13;100.00
70971;BME280;58632;51.718;19.446;2023-06-14T04:56:24;99675.27;;;15.04;100.00
70971;BME280;58632;51.718;19.446;2023-06-14T04:58:52;99668.96;;;15.07;100.00
70971;BME280;58632;51.718;19.446;2023-06-14T05:01:19;99669.83;;;15.11;100.00
70971;BME280;58632;51.718;19.446;2023-06-14T05:03:46;99668.23;;;15.15;100.00
70971;BME280;58632;51.718;19.446;2023-06-14T05:06:14;99668.13;;;15.27;100.00
70971;BME280;58632;51.718;19.446;2023-06-14T05:08:41;99669.20;;;15.46;100.00
70971;BME280;58632;51.718;19.446;2023-06-14T05:11:06;99669.77;;;15.66;100.00
70971;BME280;58632;51.718;19.446;2023-06-14T05:13:32;99667.16;;;15.85;100.00
70971;BME280;58632;51.718;19.446;2023-06-14T05:15:58;99665.54;;;16.02;100.00
70971;BME280;58632;51.718;19.446;2023-06-14T05:18:24;99664.40;;;16.18;100.00
70971;BME280;58632;51.718;19.446;2023-06-14T05:20:51;99662.09;;;16.36;100.00
70971;BME280;58632;51.718;19.446;2023-06-14T05:23:16;99657.11;;;16.49;100.00
70971;BME280;58632;51.718;19.446;2023-06-14T05:25:43;99650.81;;;16.49;100.00
70971;BME280;58632;51.718;19.446;2023-06-14T05:28:09;99646.93;;;16.49;100.00
70971;BME280;58632;51.718;19.446;2023-06-14T05:30:34;99650.51;;;16.50;100.00
70971;BME280;58632;51.718;19.446;2023-06-14T05:33:00;99648.14;;;16.54;100.00
70971;BME280;58632;51.718;19.446;2023-06-14T05:35:26;99650.92;;;16.63;100.00
70971;BME280;58632;51.718;19.446;2023-06-14T05:37:52;99651.10;;;16.73;100.00
70971;BME280;58632;51.718;19.446;2023-06-14T05:40:21;99654.41;;;16.80;100.00
70971;BME280;58632;51.718;19.446;2023-06-14T05:42:49;99656.63;;;16.90;100.00
70971;BME280;58632;51.718;19.446;2023-06-14T05:45:15;99656.41;;;16.99;100.00
70971;BME280;58632;51.718;19.446;2023-06-14T05:47:41;99655.80;;;17.05;100.00
70971;BME280;58632;51.718;19.446;2023-06-14T05:50:07;99660.79;;;17.14;100.00
70971;BME280;58632;51.718;19.446;2023-06-14T05:52:34;99662.38;;;17.20;100.00
70971;BME280;58632;51.718;19.446;2023-06-14T05:54:59;99663.96;;;17.29;100.00
70971;BME280;58632;51.718;19.446;2023-06-14T05:57:26;99662.79;;;17.45;100.00
70971;BME280;58632;51.718;19.446;2023-06-14T05:59:51;99663.33;;;17.60;100.00
70971;BME280;58632;51.718;19.446;2023-06-14T06:02:17;99669.24;;;17.74;100.00
70971;BME280;58632;51.718;19.446;2023-06-14T06:04:43;99675.60;;;17.96;100.00
70971;BME280;58632;51.718;19.446;2023-06-14T06:07:09;99678.75;;;18.23;100.00
70971;BME280;58632;51.718;19.446;2023-06-14T06:09:34;99679.14;;;18.48;100.00
70971;BME280;58632;51.718;19.446;2023-06-14T06:12:00;99682.81;;;18.66;100.00
70971;BME280;58632;51.718;19.446;2023-06-14T06:14:26;99683.13;;;18.58;100.00
70971;BME280;58632;51.718;19.446;2023-06-14T06:16:51;99679.98;;;18.40;100.00
70971;BME280;58632;51.718;19.446;2023-06-14T06:19:20;99682.23;;;18.25;100.00
70971;BME280;58632;51.718;19.446;2023-06-14T06:21:45;99677.45;;;18.15;100.00
70971;BME280;58632;51.718;19.446;2023-06-14T06:24:11;99683.00;;;18.09;100.00
70971;BME280;58632;51.718;19.446;2023-06-14T06:26:40;99678.58;;;17.99;100.00
70971;BME280;58632;51.718;19.446;2023-06-14T06:29:05;99679.61;;;17.88;100.00
70971;BME280;58632;51.718;19.446;2023-06-14T06:31:31;99682.23;;;17.79;100.00
70971;BME280;58632;51.718;19.446;2023-06-14T06:33:57;99680.77;;;17.67;100.00
70971;BME280;58632;51.718;19.446;2023-06-14T06:36:22;99678.34;;;17.63;100.00
70971;BME280;58632;51.718;19.446;2023-06-14T06:38:48;99677.27;;;17.55;100.00
70971;BME280;58632;51.718;19.446;2023-06-14T06:41:13;99680.16;;;17.43;100.00
70971;BME280;58632;51.718;19.446;2023-06-14T06:43:39;99683.02;;;17.34;100.00
70971;BME280;58632;51.718;19.446;2023-06-14T06:46:05;99679.43;;;17.22;100.00
70971;BME280;58632;51.718;19.446;2023-06-14T06:48:31;99680.80;;;17.14;100.00
70971;BME280;58632;51.718;19.446;2023-06-14T06:50:56;99690.49;;;17.09;100.00
70971;BME280;58632;51.718;19.446;2023-06-14T06:53:22;99690.84;;;17.03;100.00
70971;BME280;58632;51.718;19.446;2023-06-14T06:55:48;99690.07;;;16.90;100.00
70971;BME280;58632;51.718;19.446;2023-06-14T06:58:14;99693.27;;;16.84;100.00
70971;BME280;58632;51.718;19.446;2023-06-14T07:00:42;99697.89;;;16.78;100.00
70971;BME280;58632;51.718;19.446;2023-06-14T07:03:07;99693.73;;;16.87;100.00
70971;BME280;58632;51.718;19.446;2023-06-14T07:05:33;99689.75;;;17.11;100.00
70971;BME280;58632;51.718;19.446;2023-06-14T07:07:59;99692.48;;;17.47;100.00
70971;BME280;58632;51.718;19.446;2023-06-14T07:10:25;99697.83;;;17.89;100.00
70971;BME280;58632;51.718;19.446;2023-06-14T07:12:51;99694.29;;;18.32;100.00
70971;BME280;58632;51.718;19.446;2023-06-14T07:15:16;99698.47;;;18.75;100.00
70971;BME280;58632;51.718;19.446;2023-06-14T07:17:42;99695.70;;;19.13;100.00
70971;BME280;58632;51.718;19.446;2023-06-14T07:20:08;99695.89;;;19.62;100.00
70971;BME280;58632;51.718;19.446;2023-06-14T07:22:38;99697.08;;;20.39;100.00
70971;BME280;58632;51.718;19.446;2023-06-14T07:25:04;99691.34;;;20.95;100.00
70971;BME280;58632;51.718;19.446;2023-06-14T07:27:30;99696.57;;;21.44;100.00
70971;BME280;58632;51.718;19.446;2023-06-14T07:29:55;99699.16;;;21.96;100.00
70971;BME280;58632;51.718;19.446;2023-06-14T07:32:21;99699.79;;;22.36;100.00
70971;BME280;58632;51.718;19.446;2023-06-14T07:34:48;99697.36;;;22.68;100.00
70971;BME280;58632;51.718;19.446;2023-06-14T07:37:16;99700.77;;;22.85;100.00
70971;BME280;58632;51.718;19.446;2023-06-14T07:39:44;99701.02;;;23.11;98.94
70971;BME280;58632;51.718;19.446;2023-06-14T07:42:10;99700.28;;;23.01;99.17
70971;BME280;58632;51.718;19.446;2023-06-14T07:44:38;99705.08;;;22.99;100.00
70971;BME280;58632;51.718;19.446;2023-06-14T07:47:04;99706.81;;;23.05;99.40
70971;BME280;58632;51.718;19.446;2023-06-14T07:49:30;99707.50;;;23.10;99.85
70971;BME280;58632;51.718;19.446;2023-06-14T07:51:55;99706.39;;;23.20;99.76
70971;BME280;58632;51.718;19.446;2023-06-14T07:54:23;99711.35;;;23.42;97.93
70971;BME280;58632;51.718;19.446;2023-06-14T07:56:51;99705.25;;;23.35;90.01
70971;BME280;58632;51.718;19.446;2023-06-14T07:59:20;99706.98;;;23.14;91.17
70971;BME280;58632;51.718;19.446;2023-06-14T08:01:45;99709.07;;;23.02;91.65
70971;BME280;58632;51.718;19.446;2023-06-14T08:04:13;99710.55;;;23.07;91.82
70971;BME280;58632;51.718;19.446;2023-06-14T08:06:41;99709.23;;;23.13;85.02
70971;BME280;58632;51.718;19.446;2023-06-14T08:09:10;99710.23;;;23.08;87.62
70971;BME280;58632;51.718;19.446;2023-06-14T08:11:36;99708.71;;;23.08;87.51
70971;BME280;58632;51.718;19.446;2023-06-14T08:14:02;99709.42;;;22.89;90.00
70971;BME280;58632;51.718;19.446;2023-06-14T08:16:28;99710.57;;;22.69;91.17
70971;BME280;58632;51.718;19.446;2023-06-14T08:18:54;99707.73;;;22.48;88.95
70971;BME280;58632;51.718;19.446;2023-06-14T08:21:22;99708.53;;;22.13;86.91
70971;BME280;58632;51.718;19.446;2023-06-14T08:23:47;99710.80;;;21.84;88.34
70971;BME280;58632;51.718;19.446;2023-06-14T08:26:13;99707.56;;;21.63;88.06
70971;BME280;58632;51.718;19.446;2023-06-14T08:28:39;99706.27;;;21.40;90.47
70971;BME280;58632;51.718;19.446;2023-06-14T08:31:05;99711.90;;;21.26;92.95
70971;BME280;58632;51.718;19.446;2023-06-14T08:33:31;99707.58;;;21.04;93.05
70971;BME280;58632;51.718;19.446;2023-06-14T08:35:58;99712.03;;;20.76;94.92
70971;BME280;58632;51.718;19.446;2023-06-14T08:38:24;99712.79;;;20.51;97.60
70971;BME280;58632;51.718;19.446;2023-06-14T08:40:51;99712.14;;;20.32;99.86
70971;BME280;58632;51.718;19.446;2023-06-14T08:43:19;99711.05;;;20.22;100.00
70971;BME280;58632;51.718;19.446;2023-06-14T08:45:46;99710.00;;;20.03;100.00
70971;BME280;58632;51.718;19.446;2023-06-14T08:48:17;99711.66;;;19.77;100.00
70971;BME280;58632;51.718;19.446;2023-06-14T08:50:46;99709.11;;;19.50;100.00
70971;BME280;58632;51.718;19.446;2023-06-14T08:53:14;99711.30;;;19.28;100.00
70971;BME280;58632;51.718;19.446;2023-06-14T08:55:45;99717.17;;;19.12;100.00
70971;BME280;58632;51.718;19.446;2023-06-14T08:58:13;99716.23;;;19.05;100.00
70971;BME280;58632;51.718;19.446;2023-06-14T09:00:39;99718.71;;;18.98;100.00
70971;BME280;58632;51.718;19.446;2023-06-14T09:03:09;99716.64;;;18.83;100.00
70971;BME280;58632;51.718;19.446;2023-06-14T09:05:38;99720.35;;;18.76;100.00
70971;BME280;58632;51.718;19.446;2023-06-14T09:08:04;99718.69;;;18.75;100.00
70971;BME280;58632;51.718;19.446;2023-06-14T09:10:31;99720.36;;;18.72;100.00
70971;BME280;58632;51.718;19.446;2023-06-14T09:13:02;99718.73;;;18.68;100.00
70971;BME280;58632;51.718;19.446;2023-06-14T09:15:32;99723.88;;;18.74;100.00
70971;BME280;58632;51.718;19.446;2023-06-14T09:18:01;99728.59;;;18.89;100.00
70971;BME280;58632;51.718;19.446;2023-06-14T09:20:29;99727.80;;;19.12;100.00
70971;BME280;58632;51.718;19.446;2023-06-14T09:22:55;99724.50;;;19.32;100.00
70971;BME280;58632;51.718;19.446;2023-06-14T09:25:21;99726.38;;;19.65;100.00
70971;BME280;58632;51.718;19.446;2023-06-14T09:27:47;99729.73;;;20.09;100.00
70971;BME280;58632;51.718;19.446;2023-06-14T09:30:13;99725.30;;;20.43;100.00
70971;BME280;58632;51.718;19.446;2023-06-14T09:32:39;99726.91;;;20.60;100.00
70971;BME280;58632;51.718;19.446;2023-06-14T09:35:08;99725.20;;;20.53;100.00
70971;BME280;58632;51.718;19.446;2023-06-14T09:37:35;99724.67;;;20.46;100.00
70971;BME280;58632;51.718;19.446;2023-06-14T09:40:03;99722.85;;;20.45;100.00
70971;BME280;58632;51.718;19.446;2023-06-14T09:42:29;99722.13;;;20.43;100.00
70971;BME280;58632;51.718;19.446;2023-06-14T09:44:56;99722.02;;;20.38;100.00
70971;BME280;58632;51.718;19.446;2023-06-14T09:47:23;99718.89;;;20.48;100.00
70971;BME280;58632;51.718;19.446;2023-06-14T09:49:50;99720.13;;;20.55;100.00
70971;BME280;58632;51.718;19.446;2023-06-14T09:52:18;99723.20;;;20.62;100.00
70971;BME280;58632;51.718;19.446;2023-06-14T09:54:45;99718.52;;;20.65;100.00
70971;BME280;58632;51.718;19.446;2023-06-14T09:57:14;99721.40;;;20.71;100.00
70971;BME280;58632;51.718;19.446;2023-06-14T09:59:44;99718.73;;;20.80;100.00
70971;BME280;58632;51.718;19.446;2023-06-14T10:02:27;99717.94;;;20.82;100.00
70971;BME280;58632;51.718;19.446;2023-06-14T10:05:05;99717.48;;;20.92;100.00
70971;BME280;58632;51.718;19.446;2023-06-14T10:07:59;99715.30;;;21.13;99.53
70971;BME280;58632;51.718;19.446;2023-06-14T10:10:28;99713.64;;;21.24;96.15
70971;BME280;58632;51.718;19.446;2023-06-14T10:12:58;99714.78;;;21.39;95.86
70971;BME280;58632;51.718;19.446;2023-06-14T10:15:32;99714.80;;;21.57;96.42
70971;BME280;58632;51.718;19.446;2023-06-14T10:18:09;99713.77;;;21.68;94.40
70971;BME280;58632;51.718;19.446;2023-06-14T10:21:04;99711.68;;;21.82;92.39
70971;BME280;58632;51.718;19.446;2023-06-14T10:23:37;99711.28;;;21.84;91.79
70971;BME280;58632;51.718;19.446;2023-06-14T10:26:03;99712.15;;;21.93;90.18
70971;BME280;58632;51.718;19.446;2023-06-14T10:28:29;99712.31;;;21.90;86.18
70971;BME280;58632;51.718;19.446;2023-06-14T10:31:11;99708.58;;;21.80;88.91
70971;BME280;58632;51.718;19.446;2023-06-14T10:39:14;99707.39;;;21.69;82.73
70971;BME280;58632;51.718;19.446;2023-06-14T10:41:54;99705.09;;;21.66;86.01
70971;BME280;58632;51.718;19.446;2023-06-14T10:46:47;99698.75;;;22.03;86.98
70971;BME280;58632;51.718;19.446;2023-06-14T10:49:16;99695.69;;;22.26;85.39
70971;BME280;58632;51.718;19.446;2023-06-14T10:51:45;99696.19;;;22.40;82.92
70971;BME280;58632;51.718;19.446;2023-06-14T10:54:20;99696.80;;;22.46;77.50
70971;BME280;58632;51.718;19.446;2023-06-14T10:56:51;99696.19;;;22.59;76.24
70971;BME280;58632;51.718;19.446;2023-06-14T10:59:17;99692.25;;;22.66;76.21
70971;BME280;58632;51.718;19.446;2023-06-14T11:02:33;99692.17;;;22.66;77.25
70971;BME280;58632;51.718;19.446;2023-06-14T11:05:14;99689.47;;;22.47;77.05
70971;BME280;58632;51.718;19.446;2023-06-14T11:07:53;99686.11;;;22.27;79.06
70971;BME280;58632;51.718;19.446;2023-06-14T11:13:01;99682.81;;;22.06;79.04
70971;BME280;58632;51.718;19.446;2023-06-14T11:15:34;99686.67;;;21.83;78.94
70971;BME280;58632;51.718;19.446;2023-06-14T11:18:01;99682.25;;;21.55;80.59
70971;BME280;58632;51.718;19.446;2023-06-14T11:20:30;99685.23;;;21.27;81.81
70971;BME280;58632;51.718;19.446;2023-06-14T11:22:56;99682.52;;;21.04;84.72
70971;BME280;58632;51.718;19.446;2023-06-14T11:25:21;99684.70;;;20.83;87.81
70971;BME280;58632;51.718;19.446;2023-06-14T11:27:49;99684.50;;;20.66;89.27
70971;BME280;58632;51.718;19.446;2023-06-14T11:30:14;99683.55;;;20.52;90.19
70971;BME280;58632;51.718;19.446;2023-06-14T11:32:40;99682.33;;;20.44;92.22
70971;BME280;58632;51.718;19.446;2023-06-14T11:35:06;99684.91;;;20.38;94.43
70971;BME280;58632;51.718;19.446;2023-06-14T11:37:33;99686.09;;;20.31;94.87
70971;BME280;58632;51.718;19.446;2023-06-14T11:40:02;99684.60;;;20.20;96.23
70971;BME280;58632;51.718;19.446;2023-06-14T11:42:33;99685.55;;;20.21;99.15
70971;BME280;58632;51.718;19.446;2023-06-14T11:45:00;99686.41;;;20.33;99.26
70971;BME280;58632;51.718;19.446;2023-06-14T11:47:36;99688.60;;;20.41;99.73
70971;BME280;58632;51.718;19.446;2023-06-14T11:50:05;99684.73;;;20.51;99.99
70971;BME280;58632;51.718;19.446;2023-06-14T11:52:32;99688.52;;;20.78;100.00
70971;BME280;58632;51.718;19.446;2023-06-14T11:54:58;99685.08;;;21.13;100.00
70971;BME280;58632;51.718;19.446;2023-06-14T11:57:26;99678.50;;;21.44;100.00
70971;BME280;58632;51.718;19.446;2023-06-14T11:59:52;99678.33;;;21.75;98.65
70971;BME280;58632;51.718;19.446;2023-06-14T12:02:21;99670.94;;;22.01;96.37
70971;BME280;58632;51.718;19.446;2023-06-14T12:04:47;99672.41;;;22.24;96.38
70971;BME280;58632;51.718;19.446;2023-06-14T12:07:16;99672.91;;;22.44;94.98
70971;BME280;58632;51.718;19.446;2023-06-14T12:12:23;99663.98;;;22.73;93.42
70971;BME280;58632;51.718;19.446;2023-06-14T12:14:51;99665.27;;;22.84;95.12
70971;BME280;58632;51.718;19.446;2023-06-14T12:17:17;99663.05;;;22.97;99.58
70971;BME280;58632;51.718;19.446;2023-06-14T12:19:45;99662.36;;;22.92;98.10
70971;BME280;58632;51.718;19.446;2023-06-14T12:22:12;99659.36;;;22.86;100.00
70971;BME280;58632;51.718;19.446;2023-06-14T12:24:37;99653.90;;;22.80;100.00
70971;BME280;58632;51.718;19.446;2023-06-14T12:27:06;99651.21;;;22.75;100.00
70971;BME280;58632;51.718;19.446;2023-06-14T12:29:32;99656.39;;;22.63;100.00
70971;BME280;58632;51.718;19.446;2023-06-14T12:31:58;99650.43;;;22.43;100.00
70971;BME280;58632;51.718;19.446;2023-06-14T12:34:24;99648.89;;;22.30;100.00
70971;BME280;58632;51.718;19.446;2023-06-14T12:36:50;99642.55;;;22.23;100.00
70971;BME280;58632;51.718;19.446;2023-06-14T12:39:16;99641.81;;;22.19;100.00
70971;BME280;58632;51.718;19.446;2023-06-14T12:41:41;99642.93;;;22.18;100.00
70971;BME280;58632;51.718;19.446;2023-06-14T12:44:07;99641.98;;;22.18;100.00
70971;BME280;58632;51.718;19.446;2023-06-14T12:46:33;99644.07;;;22.15;100.00
70971;BME280;58632;51.718;19.446;2023-06-14T12:49:00;99643.10;;;22.15;100.00
70971;BME280;58632;51.718;19.446;2023-06-14T12:51:26;99640.08;;;22.17;100.00
70971;BME280;58632;51.718;19.446;2023-06-14T12:53:52;99638.31;;;22.17;100.00
70971;BME280;58632;51.718;19.446;2023-06-14T12:56:17;99641.09;;;22.29;100.00
70971;BME280;58632;51.718;19.446;2023-06-14T12:58:43;99642.34;;;22.50;100.00
70971;BME280;58632;51.718;19.446;2023-06-14T13:01:09;99640.90;;;22.80;100.00
70971;BME280;58632;51.718;19.446;2023-06-14T13:03:35;99642.60;;;23.14;99.85